sensor_id;sensor_type;location;lat;lon;timestamp;temperature;humidity
70214;DHT22;60138;55.808;37.078;2022-08-07T00:01:08;21.59;57.90
70214;DHT22;60138;55.808;37.078;2022-08-07T00:03:33;21.54;57.64
70214;DHT22;60138;55.808;37.078;2022-08-07T00:05:59;21.48;57.85
70214;DHT22;60138;55.808;37.078;2022-08-07T00:08:25;21.42;57.96
70214;DHT22;60138;55.808;37.078;2022-08-07T00:10:51;21.37;58.17
70214;DHT22;60138;55.808;37.078;2022-08-07T00:13:18;21.32;58.24
70214;DHT22;60138;55.808;37.078;2022-08-07T00:15:44;21.29;58.34
70214;DHT22;60138;55.808;37.078;2022-08-07T00:18:10;21.24;58.50
70214;DHT22;60138;55.808;37.078;2022-08-07T00:20:37;21.20;58.63
70214;DHT22;60138;55.808;37.078;2022-08-07T00:23:04;21.16;58.68
70214;DHT22;60138;55.808;37.078;2022-08-07T00:25:29;21.14;58.42
70214;DHT22;60138;55.808;37.078;2022-08-07T00:27:55;21.10;58.63
70214;DHT22;60138;55.808;37.078;2022-08-07T00:30:21;21.06;58.70
70214;DHT22;60138;55.808;37.078;2022-08-07T00:32:48;21.00;58.71
70214;DHT22;60138;55.808;37.078;2022-08-07T00:35:14;20.92;58.84
70214;DHT22;60138;55.808;37.078;2022-08-07T00:37:40;20.89;58.89
70214;DHT22;60138;55.808;37.078;2022-08-07T00:40:06;20.86;59.15
70214;DHT22;60138;55.808;37.078;2022-08-07T00:42:32;20.84;59.03
70214;DHT22;60138;55.808;37.078;2022-08-07T00:44:58;20.80;59.35
70214;DHT22;60138;55.808;37.078;2022-08-07T00:47:24;20.78;59.55
70214;DHT22;60138;55.808;37.078;2022-08-07T00:49:50;20.76;59.67
70214;DHT22;60138;55.808;37.078;2022-08-07T00:52:16;20.73;59.83
70214;DHT22;60138;55.808;37.078;2022-08-07T00:54:42;20.72;59.69
70214;DHT22;60138;55.808;37.078;2022-08-07T00:57:07;20.69;59.87
70214;DHT22;60138;55.808;37.078;2022-08-07T00:59:33;20.65;60.09
70214;DHT22;60138;55.808;37.078;2022-08-07T01:01:59;20.64;60.17
70214;DHT22;60138;55.808;37.078;2022-08-07T01:04:25;20.62;60.16
70214;DHT22;60138;55.808;37.078;2022-08-07T01:06:51;20.61;60.28
70214;DHT22;60138;55.808;37.078;2022-08-07T01:09:16;20.59;60.35
70214;DHT22;60138;55.808;37.078;2022-08-07T01:11:42;20.57;60.47
70214;DHT22;60138;55.808;37.078;2022-08-07T01:14:08;20.55;60.44
70214;DHT22;60138;55.808;37.078;2022-08-07T01:16:34;20.54;60.59
70214;DHT22;60138;55.808;37.078;2022-08-07T01:19:00;20.56;60.73
70214;DHT22;60138;55.808;37.078;2022-08-07T01:21:27;20.55;60.81
70214;DHT22;60138;55.808;37.078;2022-08-07T01:23:56;20.55;60.93
70214;DHT22;60138;55.808;37.078;2022-08-07T01:26:22;20.56;60.99
70214;DHT22;60138;55.808;37.078;2022-08-07T01:28:49;20.51;60.84
70214;DHT22;60138;55.808;37.078;2022-08-07T01:31:24;20.50;60.87
70214;DHT22;60138;55.808;37.078;2022-08-07T01:33:51;20.47;60.90
70214;DHT22;60138;55.808;37.078;2022-08-07T01:36:17;20.44;61.15
70214;DHT22;60138;55.808;37.078;2022-08-07T01:38:45;20.40;61.05
70214;DHT22;60138;55.808;37.078;2022-08-07T01:41:19;20.34;61.25
70214;DHT22;60138;55.808;37.078;2022-08-07T01:43:46;20.31;61.13
70214;DHT22;60138;55.808;37.078;2022-08-07T01:46:13;20.27;61.15
70214;DHT22;60138;55.808;37.078;2022-08-07T01:48:43;20.20;61.35
70214;DHT22;60138;55.808;37.078;2022-08-07T01:51:20;20.15;61.98
70214;DHT22;60138;55.808;37.078;2022-08-07T01:53:49;20.11;61.83
70214;DHT22;60138;55.808;37.078;2022-08-07T01:56:23;20.06;62.02
70214;DHT22;60138;55.808;37.078;2022-08-07T01:59:04;20.03;62.37
70214;DHT22;60138;55.808;37.078;2022-08-07T02:01:43;20.02;62.42
70214;DHT22;60138;55.808;37.078;2022-08-07T02:04:25;20.01;62.46
70214;DHT22;60138;55.808;37.078;2022-08-07T02:06:54;20.01;61.93
70214;DHT22;60138;55.808;37.078;2022-08-07T02:09:24;20.01;62.34
70214;DHT22;60138;55.808;37.078;2022-08-07T02:11:52;20.00;62.18
70214;DHT22;60138;55.808;37.078;2022-08-07T02:14:19;19.99;62.00
70214;DHT22;60138;55.808;37.078;2022-08-07T02:16:48;19.98;62.38
70214;DHT22;60138;55.808;37.078;2022-08-07T02:19:19;19.99;62.54
70214;DHT22;60138;55.808;37.078;2022-08-07T02:21:47;20.02;62.39
70214;DHT22;60138;55.808;37.078;2022-08-07T02:24:14;20.03;62.51
70214;DHT22;60138;55.808;37.078;2022-08-07T02:26:40;20.04;62.35
70214;DHT22;60138;55.808;37.078;2022-08-07T02:29:08;20.04;62.81
70214;DHT22;60138;55.808;37.078;2022-08-07T02:31:36;20.05;62.63
70214;DHT22;60138;55.808;37.078;2022-08-07T02:34:04;20.04;62.66
70214;DHT22;60138;55.808;37.078;2022-08-07T02:36:35;20.04;62.75
70214;DHT22;60138;55.808;37.078;2022-08-07T02:39:10;20.09;62.77
70214;DHT22;60138;55.808;37.078;2022-08-07T02:41:38;20.11;62.80
70214;DHT22;60138;55.808;37.078;2022-08-07T02:44:06;20.12;62.55
70214;DHT22;60138;55.808;37.078;2022-08-07T02:46:33;20.15;62.90
70214;DHT22;60138;55.808;37.078;2022-08-07T02:48:59;20.17;62.70
70214;DHT22;60138;55.808;37.078;2022-08-07T02:51:26;20.21;62.80
70214;DHT22;60138;55.808;37.078;2022-08-07T02:53:55;20.24;62.86
70214;DHT22;60138;55.808;37.078;2022-08-07T02:56:22;20.28;62.79
70214;DHT22;60138;55.808;37.078;2022-08-07T02:58:53;20.31;62.86
70214;DHT22;60138;55.808;37.078;2022-08-07T03:01:20;20.36;62.76
70214;DHT22;60138;55.808;37.078;2022-08-07T03:03:48;20.37;62.66
70214;DHT22;60138;55.808;37.078;2022-08-07T03:06:19;20.41;62.67
70214;DHT22;60138;55.808;37.078;2022-08-07T03:08:46;20.43;62.67
70214;DHT22;60138;55.808;37.078;2022-08-07T03:11:12;20.46;62.55
70214;DHT22;60138;55.808;37.078;2022-08-07T03:13:42;20.49;62.66
70214;DHT22;60138;55.808;37.078;2022-08-07T03:16:09;20.54;62.79
70214;DHT22;60138;55.808;37.078;2022-08-07T03:18:36;20.58;62.68
70214;DHT22;60138;55.808;37.078;2022-08-07T03:21:04;20.62;62.63
70214;DHT22;60138;55.808;37.078;2022-08-07T03:23:31;20.64;62.73
70214;DHT22;60138;55.808;37.078;2022-08-07T03:25:59;20.70;62.61
70214;DHT22;60138;55.808;37.078;2022-08-07T03:28:29;20.72;62.53
70214;DHT22;60138;55.808;37.078;2022-08-07T03:30:58;20.77;62.36
70214;DHT22;60138;55.808;37.078;2022-08-07T03:33:25;20.79;62.28
70214;DHT22;60138;55.808;37.078;2022-08-07T03:35:51;20.81;62.37
70214;DHT22;60138;55.808;37.078;2022-08-07T03:38:18;20.87;62.21
70214;DHT22;60138;55.808;37.078;2022-08-07T03:40:44;20.91;62.15
70214;DHT22;60138;55.808;37.078;2022-08-07T03:43:13;20.95;62.25
70214;DHT22;60138;55.808;37.078;2022-08-07T03:45:40;20.98;62.12
70214;DHT22;60138;55.808;37.078;2022-08-07T03:48:10;21.03;61.97
70214;DHT22;60138;55.808;37.078;2022-08-07T03:50:36;21.08;61.92
70214;DHT22;60138;55.808;37.078;2022-08-07T03:53:03;21.10;61.92
70214;DHT22;60138;55.808;37.078;2022-08-07T03:55:30;21.16;61.96
70214;DHT22;60138;55.808;37.078;2022-08-07T03:57:56;21.21;61.77
70214;DHT22;60138;55.808;37.078;2022-08-07T04:00:27;21.28;61.48
70214;DHT22;60138;55.808;37.078;2022-08-07T04:02:53;21.32;61.16
70214;DHT22;60138;55.808;37.078;2022-08-07T04:05:27;21.37;60.99
70214;DHT22;60138;55.808;37.078;2022-08-07T04:07:53;21.44;60.77
70214;DHT22;60138;55.808;37.078;2022-08-07T04:10:23;21.50;60.60
70214;DHT22;60138;55.808;37.078;2022-08-07T04:12:50;21.58;60.54
70214;DHT22;60138;55.808;37.078;2022-08-07T04:15:17;21.64;60.55
70214;DHT22;60138;55.808;37.078;2022-08-07T04:17:44;21.70;60.39
70214;DHT22;60138;55.808;37.078;2022-08-07T04:20:11;21.77;60.07
70214;DHT22;60138;55.808;37.078;2022-08-07T04:22:39;21.85;60.35
70214;DHT22;60138;55.808;37.078;2022-08-07T04:25:05;21.93;59.71
70214;DHT22;60138;55.808;37.078;2022-08-07T04:27:33;22.02;59.77
70214;DHT22;60138;55.808;37.078;2022-08-07T04:29:58;22.10;59.58
70214;DHT22;60138;55.808;37.078;2022-08-07T04:32:30;22.19;59.38
70214;DHT22;60138;55.808;37.078;2022-08-07T04:34:57;22.26;59.10
70214;DHT22;60138;55.808;37.078;2022-08-07T04:37:23;22.37;59.03
70214;DHT22;60138;55.808;37.078;2022-08-07T04:39:51;22.46;58.82
70214;DHT22;60138;55.808;37.078;2022-08-07T04:42:17;22.54;58.44
70214;DHT22;60138;55.808;37.078;2022-08-07T04:44:43;22.62;60.30
70214;DHT22;60138;55.808;37.078;2022-08-07T04:47:26;22.73;59.42
70214;DHT22;60138;55.808;37.078;2022-08-07T04:50:28;22.80;58.49
70214;DHT22;60138;55.808;37.078;2022-08-07T04:53:20;22.86;58.62
70214;DHT22;60138;55.808;37.078;2022-08-07T04:58:21;22.97;57.90
70214;DHT22;60138;55.808;37.078;2022-08-07T05:04:13;23.10;58.13
70214;DHT22;60138;55.808;37.078;2022-08-07T05:06:52;23.16;57.68
70214;DHT22;60138;55.808;37.078;2022-08-07T05:09:30;23.21;57.45
70214;DHT22;60138;55.808;37.078;2022-08-07T05:11:58;23.25;56.93
70214;DHT22;60138;55.808;37.078;2022-08-07T05:14:36;23.32;57.16
70214;DHT22;60138;55.808;37.078;2022-08-07T05:17:06;23.38;57.00
70214;DHT22;60138;55.808;37.078;2022-08-07T05:19:43;23.41;57.29
70214;DHT22;60138;55.808;37.078;2022-08-07T05:22:16;23.45;57.19
70214;DHT22;60138;55.808;37.078;2022-08-07T05:24:44;23.51;56.84
70214;DHT22;60138;55.808;37.078;2022-08-07T05:27:14;23.55;56.77
70214;DHT22;60138;55.808;37.078;2022-08-07T05:29:43;23.60;56.58
70214;DHT22;60138;55.808;37.078;2022-08-07T05:32:10;23.70;56.55
70214;DHT22;60138;55.808;37.078;2022-08-07T05:34:39;23.75;56.49
70214;DHT22;60138;55.808;37.078;2022-08-07T05:37:05;23.84;56.07
70214;DHT22;60138;55.808;37.078;2022-08-07T05:39:42;23.95;56.12
70214;DHT22;60138;55.808;37.078;2022-08-07T05:42:08;24.05;55.97
70214;DHT22;60138;55.808;37.078;2022-08-07T05:44:36;24.19;55.63
70214;DHT22;60138;55.808;37.078;2022-08-07T05:47:05;24.32;55.52
70214;DHT22;60138;55.808;37.078;2022-08-07T05:49:33;24.42;55.17
70214;DHT22;60138;55.808;37.078;2022-08-07T05:51:59;24.48;55.06
70214;DHT22;60138;55.808;37.078;2022-08-07T05:54:28;24.53;54.75
70214;DHT22;60138;55.808;37.078;2022-08-07T05:56:55;24.57;54.45
70214;DHT22;60138;55.808;37.078;2022-08-07T05:59:24;24.62;54.37
70214;DHT22;60138;55.808;37.078;2022-08-07T06:01:56;24.66;54.17
70214;DHT22;60138;55.808;37.078;2022-08-07T06:04:22;24.73;54.29
70214;DHT22;60138;55.808;37.078;2022-08-07T06:06:50;24.82;54.52
70214;DHT22;60138;55.808;37.078;2022-08-07T06:09:17;24.90;54.15
70214;DHT22;60138;55.808;37.078;2022-08-07T06:11:45;25.00;54.14
70214;DHT22;60138;55.808;37.078;2022-08-07T06:14:11;25.06;53.60
70214;DHT22;60138;55.808;37.078;2022-08-07T06:16:38;25.19;53.75
70214;DHT22;60138;55.808;37.078;2022-08-07T06:19:07;25.30;53.53
70214;DHT22;60138;55.808;37.078;2022-08-07T06:21:35;25.49;53.35
70214;DHT22;60138;55.808;37.078;2022-08-07T06:24:03;25.76;52.78
70214;DHT22;60138;55.808;37.078;2022-08-07T06:26:29;25.97;51.89
70214;DHT22;60138;55.808;37.078;2022-08-07T06:28:57;26.11;51.98
70214;DHT22;60138;55.808;37.078;2022-08-07T06:31:25;26.26;51.69
70214;DHT22;60138;55.808;37.078;2022-08-07T06:33:52;26.42;51.45
70214;DHT22;60138;55.808;37.078;2022-08-07T06:36:18;26.61;50.70
70214;DHT22;60138;55.808;37.078;2022-08-07T06:38:51;26.84;51.01
70214;DHT22;60138;55.808;37.078;2022-08-07T06:41:21;27.02;50.59
70214;DHT22;60138;55.808;37.078;2022-08-07T06:43:49;27.15;50.50
70214;DHT22;60138;55.808;37.078;2022-08-07T06:46:19;27.15;49.91
70214;DHT22;60138;55.808;37.078;2022-08-07T06:48:45;27.15;49.99
70214;DHT22;60138;55.808;37.078;2022-08-07T06:51:21;27.21;50.02
70214;DHT22;60138;55.808;37.078;2022-08-07T06:53:49;27.29;49.87
70214;DHT22;60138;55.808;37.078;2022-08-07T06:56:17;27.39;49.41
70214;DHT22;60138;55.808;37.078;2022-08-07T06:58:47;27.51;49.11
70214;DHT22;60138;55.808;37.078;2022-08-07T07:01:14;27.59;47.91
70214;DHT22;60138;55.808;37.078;2022-08-07T07:03:41;27.63;47.99
70214;DHT22;60138;55.808;37.078;2022-08-07T07:06:07;27.63;45.87
70214;DHT22;60138;55.808;37.078;2022-08-07T07:08:33;27.66;46.31
70214;DHT22;60138;55.808;37.078;2022-08-07T07:11:01;27.76;47.50
70214;DHT22;60138;55.808;37.078;2022-08-07T07:13:33;27.95;47.67
70214;DHT22;60138;55.808;37.078;2022-08-07T07:16:07;28.04;46.06
70214;DHT22;60138;55.808;37.078;2022-08-07T07:18:40;28.05;46.50
70214;DHT22;60138;55.808;37.078;2022-08-07T07:21:12;28.03;45.61
70214;DHT22;60138;55.808;37.078;2022-08-07T07:23:40;28.03;46.28
70214;DHT22;60138;55.808;37.078;2022-08-07T07:26:08;28.00;45.40
70214;DHT22;60138;55.808;37.078;2022-08-07T07:28:43;27.98;45.41
70214;DHT22;60138;55.808;37.078;2022-08-07T07:31:17;28.00;46.18
70214;DHT22;60138;55.808;37.078;2022-08-07T07:33:44;28.00;46.52
70214;DHT22;60138;55.808;37.078;2022-08-07T07:36:10;28.10;47.03
70214;DHT22;60138;55.808;37.078;2022-08-07T07:38:37;28.14;45.79
70214;DHT22;60138;55.808;37.078;2022-08-07T07:41:07;28.14;46.19
70214;DHT22;60138;55.808;37.078;2022-08-07T07:43:38;28.12;46.43
70214;DHT22;60138;55.808;37.078;2022-08-07T07:46:05;28.09;45.73
70214;DHT22;60138;55.808;37.078;2022-08-07T07:48:34;28.06;46.65
70214;DHT22;60138;55.808;37.078;2022-08-07T07:51:05;28.02;46.57
70214;DHT22;60138;55.808;37.078;2022-08-07T07:53:33;28.05;47.02
70214;DHT22;60138;55.808;37.078;2022-08-07T07:56:02;28.15;47.10
70214;DHT22;60138;55.808;37.078;2022-08-07T07:58:37;28.30;46.89
70214;DHT22;60138;55.808;37.078;2022-08-07T08:01:06;28.43;46.76
70214;DHT22;60138;55.808;37.078;2022-08-07T08:03:34;28.54;46.93
70214;DHT22;60138;55.808;37.078;2022-08-07T08:06:01;28.61;46.94
70214;DHT22;60138;55.808;37.078;2022-08-07T08:08:29;28.55;46.21
70214;DHT22;60138;55.808;37.078;2022-08-07T08:10:55;28.44;46.41
70214;DHT22;60138;55.808;37.078;2022-08-07T08:13:23;28.32;46.39
70214;DHT22;60138;55.808;37.078;2022-08-07T08:15:50;28.20;46.27
70214;DHT22;60138;55.808;37.078;2022-08-07T08:18:17;28.10;45.91
70214;DHT22;60138;55.808;37.078;2022-08-07T08:20:45;28.03;46.50
70214;DHT22;60138;55.808;37.078;2022-08-07T08:23:13;28.01;47.34
70214;DHT22;60138;55.808;37.078;2022-08-07T08:25:42;28.02;47.20
70214;DHT22;60138;55.808;37.078;2022-08-07T08:28:11;28.04;47.52
70214;DHT22;60138;55.808;37.078;2022-08-07T08:30:41;28.13;46.91
70214;DHT22;60138;55.808;37.078;2022-08-07T08:33:08;28.23;47.00
70214;DHT22;60138;55.808;37.078;2022-08-07T08:35:37;28.34;47.25
70214;DHT22;60138;55.808;37.078;2022-08-07T08:38:04;28.50;47.22
70214;DHT22;60138;55.808;37.078;2022-08-07T08:40:33;28.65;46.70
70214;DHT22;60138;55.808;37.078;2022-08-07T08:45:52;28.91;46.62
70214;DHT22;60138;55.808;37.078;2022-08-07T08:48:36;29.07;46.51
70214;DHT22;60138;55.808;37.078;2022-08-07T08:53:44;29.22;45.90
70214;DHT22;60138;55.808;37.078;2022-08-07T08:56:18;29.26;46.28
70214;DHT22;60138;55.808;37.078;2022-08-07T08:59:06;29.24;46.11
70214;DHT22;60138;55.808;37.078;2022-08-07T09:04:21;29.20;46.26
70214;DHT22;60138;55.808;37.078;2022-08-07T09:07:07;29.27;45.73
70214;DHT22;60138;55.808;37.078;2022-08-07T09:09:57;29.32;44.93
70214;DHT22;60138;55.808;37.078;2022-08-07T09:15:53;29.65;42.59
70214;DHT22;60138;55.808;37.078;2022-08-07T09:21:11;30.10;42.58
70214;DHT22;60138;55.808;37.078;2022-08-07T09:23:58;30.39;41.94
70214;DHT22;60138;55.808;37.078;2022-08-07T09:29:59;30.95;40.68
70214;DHT22;60138;55.808;37.078;2022-08-07T09:38:24;31.90;40.46
70214;DHT22;60138;55.808;37.078;2022-08-07T09:44:20;32.13;39.03
70214;DHT22;60138;55.808;37.078;2022-08-07T09:47:16;32.08;37.96
70214;DHT22;60138;55.808;37.078;2022-08-07T09:50:00;31.96;34.89
70214;DHT22;60138;55.808;37.078;2022-08-07T10:00:20;30.15;39.67
70214;DHT22;60138;55.808;37.078;2022-08-07T10:03:15;29.44;41.07
70214;DHT22;60138;55.808;37.078;2022-08-07T10:17:05;28.15;45.13
70214;DHT22;60138;55.808;37.078;2022-08-07T10:22:32;27.88;46.02
70214;DHT22;60138;55.808;37.078;2022-08-07T10:28:11;27.98;45.66
70214;DHT22;60138;55.808;37.078;2022-08-07T10:36:43;27.09;47.37
70214;DHT22;60138;55.808;37.078;2022-08-07T10:42:29;26.16;50.14
70214;DHT22;60138;55.808;37.078;2022-08-07T10:45:26;26.10;49.31
70214;DHT22;60138;55.808;37.078;2022-08-07T10:48:02;26.12;47.96
70214;DHT22;60138;55.808;37.078;2022-08-07T10:53:26;26.15;50.53
70214;DHT22;60138;55.808;37.078;2022-08-07T10:58:49;25.88;49.44
70214;DHT22;60138;55.808;37.078;2022-08-07T11:01:23;25.83;49.55
70214;DHT22;60138;55.808;37.078;2022-08-07T11:06:23;25.87;51.04
70214;DHT22;60138;55.808;37.078;2022-08-07T11:09:00;25.72;53.46
70214;DHT22;60138;55.808;37.078;2022-08-07T11:11:43;25.40;53.85
70214;DHT22;60138;55.808;37.078;2022-08-07T11:14:21;25.08;53.94
70214;DHT22;60138;55.808;37.078;2022-08-07T11:16:53;23.95;62.28
70214;DHT22;60138;55.808;37.078;2022-08-07T11:22:11;21.05;109.65
70214;DHT22;60138;55.808;37.078;2022-08-07T11:24:54;20.63;86.77
70214;DHT22;60138;55.808;37.078;2022-08-07T11:27:32;20.29;85.84
70214;DHT22;60138;55.808;37.078;2022-08-07T11:30:06;20.11;83.58
70214;DHT22;60138;55.808;37.078;2022-08-07T11:33:04;20.00;83.27
70214;DHT22;60138;55.808;37.078;2022-08-07T11:35:56;19.83;85.67
70214;DHT22;60138;55.808;37.078;2022-08-07T11:38:31;19.87;86.35
70214;DHT22;60138;55.808;37.078;2022-08-07T11:41:11;19.90;85.73
70214;DHT22;60138;55.808;37.078;2022-08-07T11:43:43;20.04;86.26
70214;DHT22;60138;55.808;37.078;2022-08-07T11:57:40;20.19;81.35
70214;DHT22;60138;55.808;37.078;2022-08-07T12:00:13;20.19;80.62
70214;DHT22;60138;55.808;37.078;2022-08-07T12:08:00;20.44;79.96
70214;DHT22;60138;55.808;37.078;2022-08-07T12:13:39;20.73;79.96
70214;DHT22;60138;55.808;37.078;2022-08-07T12:16:10;20.81;80.14
70214;DHT22;60138;55.808;37.078;2022-08-07T12:18:41;20.94;80.82
70214;DHT22;60138;55.808;37.078;2022-08-07T12:26:40;20.90;78.60
70214;DHT22;60138;55.808;37.078;2022-08-07T12:29:18;20.78;79.01
70214;DHT22;60138;55.808;37.078;2022-08-07T12:31:56;20.70;79.76
70214;DHT22;60138;55.808;37.078;2022-08-07T12:34:25;20.58;79.20
70214;DHT22;60138;55.808;37.078;2022-08-07T12:36:53;20.51;80.40
70214;DHT22;60138;55.808;37.078;2022-08-07T12:39:21;20.57;79.02
70214;DHT22;60138;55.808;37.078;2022-08-07T12:41:50;20.74;79.89
70214;DHT22;60138;55.808;37.078;2022-08-07T12:44:17;21.11;79.78
70214;DHT22;60138;55.808;37.078;2022-08-07T12:52:15;23.67;71.99
70214;DHT22;60138;55.808;37.078;2022-08-07T12:54:50;23.50;72.11
70214;DHT22;60138;55.808;37.078;2022-08-07T12:57:22;23.27;71.32
70214;DHT22;60138;55.808;37.078;2022-08-07T12:59:50;23.21;70.60
70214;DHT22;60138;55.808;37.078;2022-08-07T13:02:54;23.14;72.25
70214;DHT22;60138;55.808;37.078;2022-08-07T13:08:28;22.83;73.64
70214;DHT22;60138;55.808;37.078;2022-08-07T13:22:22;22.60;74.59
70214;DHT22;60138;55.808;37.078;2022-08-07T13:24:55;22.60;74.17
70214;DHT22;60138;55.808;37.078;2022-08-07T13:27:26;22.63;74.32
70214;DHT22;60138;55.808;37.078;2022-08-07T13:30:04;22.58;72.90
70214;DHT22;60138;55.808;37.078;2022-08-07T13:32:51;22.58;73.41
70214;DHT22;60138;55.808;37.078;2022-08-07T13:35:28;22.52;73.19
70214;DHT22;60138;55.808;37.078;2022-08-07T13:38:37;22.47;71.67
70214;DHT22;60138;55.808;37.078;2022-08-07T13:43:59;22.50;70.52
70214;DHT22;60138;55.808;37.078;2022-08-07T13:46:37;22.75;71.63
70214;DHT22;60138;55.808;37.078;2022-08-07T13:49:05;23.38;70.07
70214;DHT22;60138;55.808;37.078;2022-08-07T13:51:33;24.08;69.61
70214;DHT22;60138;55.808;37.078;2022-08-07T13:54:02;24.59;68.71
70214;DHT22;60138;55.808;37.078;2022-08-07T13:56:33;25.10;68.46
70214;DHT22;60138;55.808;37.078;2022-08-07T13:59:00;25.59;68.56
70214;DHT22;60138;55.808;37.078;2022-08-07T14:01:36;25.84;65.59
70214;DHT22;60138;55.808;37.078;2022-08-07T14:04:08;25.75;66.24
70214;DHT22;60138;55.808;37.078;2022-08-07T14:06:39;25.52;61.85
70214;DHT22;60138;55.808;37.078;2022-08-07T14:09:08;25.17;63.65
70214;DHT22;60138;55.808;37.078;2022-08-07T14:11:44;24.76;60.52
70214;DHT22;60138;55.808;37.078;2022-08-07T14:14:13;24.46;65.81
70214;DHT22;60138;55.808;37.078;2022-08-07T14:16:45;24.18;61.68
70214;DHT22;60138;55.808;37.078;2022-08-07T14:19:28;24.19;66.88
70214;DHT22;60138;55.808;37.078;2022-08-07T14:21:54;24.29;67.79
70214;DHT22;60138;55.808;37.078;2022-08-07T14:24:27;24.23;66.20
70214;DHT22;60138;55.808;37.078;2022-08-07T14:27:02;24.16;68.46
70214;DHT22;60138;55.808;37.078;2022-08-07T14:29:35;24.13;68.39
70214;DHT22;60138;55.808;37.078;2022-08-07T14:32:06;24.14;68.66
70214;DHT22;60138;55.808;37.078;2022-08-07T14:34:38;24.11;66.56
70214;DHT22;60138;55.808;37.078;2022-08-07T14:37:09;24.08;69.52
70214;DHT22;60138;55.808;37.078;2022-08-07T14:39:46;24.08;70.25
70214;DHT22;60138;55.808;37.078;2022-08-07T14:42:13;24.10;70.84
70214;DHT22;60138;55.808;37.078;2022-08-07T14:44:49;24.01;69.97
70214;DHT22;60138;55.808;37.078;2022-08-07T14:47:18;23.87;69.53
70214;DHT22;60138;55.808;37.078;2022-08-07T14:49:45;23.71;69.07
70214;DHT22;60138;55.808;37.078;2022-08-07T14:52:12;23.58;70.74
70214;DHT22;60138;55.808;37.078;2022-08-07T14:54:39;23.55;71.10
70214;DHT22;60138;55.808;37.078;2022-08-07T14:57:13;23.46;70.28
70214;DHT22;60138;55.808;37.078;2022-08-07T14:59:40;23.40;70.97
70214;DHT22;60138;55.808;37.078;2022-08-07T15:02:13;23.25;69.10
70214;DHT22;60138;55.808;37.078;2022-08-07T15:04:44;23.17;68.13
70214;DHT22;60138;55.808;37.078;2022-08-07T15:07:16;23.09;69.70
70214;DHT22;60138;55.808;37.078;2022-08-07T15:09:43;23.00;69.83
70214;DHT22;60138;55.808;37.078;2022-08-07T15:12:20;22.97;69.82
70214;DHT22;60138;55.808;37.078;2022-08-07T15:14:52;22.91;66.51
70214;DHT22;60138;55.808;37.078;2022-08-07T15:17:29;22.84;69.95
70214;DHT22;60138;55.808;37.078;2022-08-07T15:19:57;22.86;71.52
70214;DHT22;60138;55.808;37.078;2022-08-07T15:22:28;22.86;72.40
70214;DHT22;60138;55.808;37.078;2022-08-07T15:24:54;22.90;72.45
70214;DHT22;60138;55.808;37.078;2022-08-07T15:27:23;22.90;72.96
70214;DHT22;60138;55.808;37.078;2022-08-07T15:29:52;22.90;73.38
70214;DHT22;60138;55.808;37.078;2022-08-07T15:32:22;22.90;73.68
70214;DHT22;60138;55.808;37.078;2022-08-07T15:34:55;22.88;73.82
70214;DHT22;60138;55.808;37.078;2022-08-07T15:37:24;22.85;73.80
70214;DHT22;60138;55.808;37.078;2022-08-07T15:39:59;22.81;73.99
70214;DHT22;60138;55.808;37.078;2022-08-07T15:45:24;22.77;74.15
70214;DHT22;60138;55.808;37.078;2022-08-07T15:47:54;22.75;74.16
70214;DHT22;60138;55.808;37.078;2022-08-07T15:50:21;22.72;74.47
70214;DHT22;60138;55.808;37.078;2022-08-07T15:52:57;22.71;74.41
70214;DHT22;60138;55.808;37.078;2022-08-07T15:55:24;22.67;73.79
70214;DHT22;60138;55.808;37.078;2022-08-07T15:57:51;22.60;73.77
70214;DHT22;60138;55.808;37.078;2022-08-07T16:00:20;22.56;73.99
70214;DHT22;60138;55.808;37.078;2022-08-07T16:02:47;22.55;74.12
70214;DHT22;60138;55.808;37.078;2022-08-07T16:05:19;22.47;73.60
70214;DHT22;60138;55.808;37.078;2022-08-07T16:07:52;22.42;74.07
70214;DHT22;60138;55.808;37.078;2022-08-07T16:10:22;22.40;74.10
70214;DHT22;60138;55.808;37.078;2022-08-07T16:13:09;22.41;74.41
70214;DHT22;60138;55.808;37.078;2022-08-07T16:21:03;22.40;74.61
70214;DHT22;60138;55.808;37.078;2022-08-07T16:31:33;22.25;74.51
70214;DHT22;60138;55.808;37.078;2022-08-07T16:34:04;22.17;74.20
70214;DHT22;60138;55.808;37.078;2022-08-07T16:53:36;21.73;74.69
70214;DHT22;60138;55.808;37.078;2022-08-07T16:56:01;21.70;74.80
70214;DHT22;60138;55.808;37.078;2022-08-07T17:01:28;21.64;74.83
70214;DHT22;60138;55.808;37.078;2022-08-07T17:04:32;21.59;74.64
70214;DHT22;60138;55.808;37.078;2022-08-07T17:07:10;21.55;74.73
70214;DHT22;60138;55.808;37.078;2022-08-07T17:09:50;21.53;74.65
70214;DHT22;60138;55.808;37.078;2022-08-07T17:12:21;21.51;74.29
70214;DHT22;60138;55.808;37.078;2022-08-07T17:14:56;21.51;74.28
70214;DHT22;60138;55.808;37.078;2022-08-07T17:17:41;21.49;74.38
70214;DHT22;60138;55.808;37.078;2022-08-07T17:20:21;21.45;73.93
70214;DHT22;60138;55.808;37.078;2022-08-07T17:31:17;21.37;74.18
70214;DHT22;60138;55.808;37.078;2022-08-07T17:33:49;21.33;73.44
70214;DHT22;60138;55.808;37.078;2022-08-07T17:36:26;21.25;73.26
70214;DHT22;60138;55.808;37.078;2022-08-07T17:39:02;21.21;72.79
70214;DHT22;60138;55.808;37.078;2022-08-07T17:41:47;21.16;72.72
70214;DHT22;60138;55.808;37.078;2022-08-07T17:44:23;21.15;73.31
70214;DHT22;60138;55.808;37.078;2022-08-07T17:49:29;21.16;73.93
70214;DHT22;60138;55.808;37.078;2022-08-07T17:52:09;21.13;73.81
70214;DHT22;60138;55.808;37.078;2022-08-07T17:57:45;21.09;73.90
70214;DHT22;60138;55.808;37.078;2022-08-07T18:00:19;21.07;74.10
70214;DHT22;60138;55.808;37.078;2022-08-07T18:02:53;21.10;74.16
70214;DHT22;60138;55.808;37.078;2022-08-07T18:08:03;21.10;74.28
70214;DHT22;60138;55.808;37.078;2022-08-07T18:13:45;21.04;74.67
70214;DHT22;60138;55.808;37.078;2022-08-07T18:18:56;20.98;74.65
70214;DHT22;60138;55.808;37.078;2022-08-07T18:21:53;20.95;74.85
70214;DHT22;60138;55.808;37.078;2022-08-07T18:27:33;20.92;74.80
70214;DHT22;60138;55.808;37.078;2022-08-07T18:30:02;20.91;74.56
70214;DHT22;60138;55.808;37.078;2022-08-07T18:47:28;20.65;74.73
70214;DHT22;60138;55.808;37.078;2022-08-07T18:56:39;20.36;74.09
70214;DHT22;60138;55.808;37.078;2022-08-07T19:01:38;20.28;74.03
70214;DHT22;60138;55.808;37.078;2022-08-07T19:04:11;20.27;74.02
70214;DHT22;60138;55.808;37.078;2022-08-07T19:06:59;20.27;74.50
70214;DHT22;60138;55.808;37.078;2022-08-07T19:09:32;20.29;74.65
70214;DHT22;60138;55.808;37.078;2022-08-07T19:12:12;20.32;74.80